sensor_id;sensor_type;location;lat;lon;timestamp;P1;durP1;ratioP1;P2;durP2;ratioP2
21987;SDS011;11158;53.404;-1.510;2022-12-17T00:00:21;13.57;;;8.55;;
21987;SDS011;11158;53.404;-1.510;2022-12-17T00:03:05;15.15;;;8.73;;
21987;SDS011;11158;53.404;-1.510;2022-12-17T00:05:51;13.13;;;10.00;;
21987;SDS011;11158;53.404;-1.510;2022-12-17T00:08:36;12.95;;;9.30;;
21987;SDS011;11158;53.404;-1.510;2022-12-17T00:11:20;13.05;;;9.18;;
21987;SDS011;11158;53.404;-1.510;2022-12-17T00:14:05;12.25;;;8.40;;
21987;SDS011;11158;53.404;-1.510;2022-12-17T00:16:49;12.00;;;9.38;;
21987;SDS011;11158;53.404;-1.510;2022-12-17T00:19:33;14.20;;;9.80;;
21987;SDS011;11158;53.404;-1.510;2022-12-17T00:22:17;14.60;;;9.07;;
21987;SDS011;11158;53.404;-1.510;2022-12-17T00:25:01;12.02;;;8.75;;
21987;SDS011;11158;53.404;-1.510;2022-12-17T00:27:46;18.83;;;9.40;;
21987;SDS011;11158;53.404;-1.510;2022-12-17T00:30:30;15.27;;;9.07;;
21987;SDS011;11158;53.404;-1.510;2022-12-17T00:33:14;10.52;;;8.63;;
21987;SDS011;11158;53.404;-1.510;2022-12-17T00:36:00;13.13;;;9.32;;
21987;SDS011;11158;53.404;-1.510;2022-12-17T00:38:44;15.13;;;8.90;;
21987;SDS011;11158;53.404;-1.510;2022-12-17T00:41:29;15.90;;;9.38;;
21987;SDS011;11158;53.404;-1.510;2022-12-17T00:44:13;13.13;;;8.95;;
21987;SDS011;11158;53.404;-1.510;2022-12-17T00:46:57;15.38;;;10.27;;
21987;SDS011;11158;53.404;-1.510;2022-12-17T00:49:41;11.18;;;8.27;;
21987;SDS011;11158;53.404;-1.510;2022-12-17T00:52:26;12.38;;;8.68;;
21987;SDS011;11158;53.404;-1.510;2022-12-17T00:55:10;12.02;;;8.35;;
21987;SDS011;11158;53.404;-1.510;2022-12-17T00:57:54;14.82;;;9.20;;
21987;SDS011;11158;53.404;-1.510;2022-12-17T01:00:39;15.45;;;8.60;;
21987;SDS011;11158;53.404;-1.510;2022-12-17T01:03:24;14.82;;;9.90;;
21987;SDS011;11158;53.404;-1.510;2022-12-17T01:06:09;16.83;;;9.32;;
21987;SDS011;11158;53.404;-1.510;2022-12-17T01:08:53;13.98;;;9.38;;
21987;SDS011;11158;53.404;-1.510;2022-12-17T01:11:38;13.93;;;9.10;;
21987;SDS011;11158;53.404;-1.510;2022-12-17T01:14:22;12.77;;;8.75;;
21987;SDS011;11158;53.404;-1.510;2022-12-17T01:17:07;10.57;;;8.75;;
21987;SDS011;11158;53.404;-1.510;2022-12-17T01:19:52;11.95;;;8.52;;
21987;SDS011;11158;53.404;-1.510;2022-12-17T01:22:56;11.38;;;9.10;;
21987;SDS011;11158;53.404;-1.510;2022-12-17T01:25:40;10.88;;;8.73;;
21987;SDS011;11158;53.404;-1.510;2022-12-17T01:28:26;12.15;;;8.70;;
21987;SDS011;11158;53.404;-1.510;2022-12-17T01:31:10;12.63;;;8.82;;
21987;SDS011;11158;53.404;-1.510;2022-12-17T01:33:55;13.48;;;8.05;;
21987;SDS011;11158;53.404;-1.510;2022-12-17T01:36:39;14.18;;;7.85;;
21987;SDS011;11158;53.404;-1.510;2022-12-17T01:39:23;13.93;;;7.95;;
21987;SDS011;11158;53.404;-1.510;2022-12-17T01:42:10;11.57;;;8.20;;
21987;SDS011;11158;53.404;-1.510;2022-12-17T01:44:55;13.43;;;8.32;;
21987;SDS011;11158;53.404;-1.510;2022-12-17T01:47:58;9.95;;;7.82;;
21987;SDS011;11158;53.404;-1.510;2022-12-17T01:50:49;11.60;;;7.88;;
21987;SDS011;11158;53.404;-1.510;2022-12-17T01:53:39;9.35;;;6.80;;
21987;SDS011;11158;53.404;-1.510;2022-12-17T01:56:27;9.45;;;7.13;;
21987;SDS011;11158;53.404;-1.510;2022-12-17T01:59:11;11.23;;;7.10;;
21987;SDS011;11158;53.404;-1.510;2022-12-17T02:01:57;10.60;;;7.45;;
21987;SDS011;11158;53.404;-1.510;2022-12-17T02:04:41;13.32;;;6.53;;
21987;SDS011;11158;53.404;-1.510;2022-12-17T02:13:57;11.88;;;7.35;;
21987;SDS011;11158;53.404;-1.510;2022-12-17T02:17:04;10.15;;;6.35;;
21987;SDS011;11158;53.404;-1.510;2022-12-17T02:26:14;9.90;;;8.07;;
21987;SDS011;11158;53.404;-1.510;2022-12-17T02:29:04;13.30;;;7.25;;
21987;SDS011;11158;53.404;-1.510;2022-12-17T02:31:49;10.10;;;7.25;;
21987;SDS011;11158;53.404;-1.510;2022-12-17T02:34:45;9.40;;;7.45;;
21987;SDS011;11158;53.404;-1.510;2022-12-17T02:37:30;11.52;;;7.15;;
21987;SDS011;11158;53.404;-1.510;2022-12-17T02:40:14;10.35;;;7.20;;
21987;SDS011;11158;53.404;-1.510;2022-12-17T02:43:00;14.95;;;8.52;;
21987;SDS011;11158;53.404;-1.510;2022-12-17T02:45:45;11.13;;;8.05;;
21987;SDS011;11158;53.404;-1.510;2022-12-17T02:48:30;11.82;;;8.30;;
21987;SDS011;11158;53.404;-1.510;2022-12-17T02:51:15;9.98;;;7.38;;
21987;SDS011;11158;53.404;-1.510;2022-12-17T02:54:01;10.05;;;8.50;;
21987;SDS011;11158;53.404;-1.510;2022-12-17T02:56:46;13.23;;;9.27;;
21987;SDS011;11158;53.404;-1.510;2022-12-17T02:59:30;11.95;;;8.90;;
21987;SDS011;11158;53.404;-1.510;2022-12-17T03:02:15;12.40;;;8.98;;
21987;SDS011;11158;53.404;-1.510;2022-12-17T03:04:59;11.20;;;9.00;;
21987;SDS011;11158;53.404;-1.510;2022-12-17T03:07:44;12.23;;;9.73;;
21987;SDS011;11158;53.404;-1.510;2022-12-17T03:10:28;13.93;;;9.88;;
21987;SDS011;11158;53.404;-1.510;2022-12-17T03:13:25;12.50;;;9.25;;
21987;SDS011;11158;53.404;-1.510;2022-12-17T03:16:12;14.55;;;8.90;;
21987;SDS011;11158;53.404;-1.510;2022-12-17T03:18:59;13.70;;;9.30;;
21987;SDS011;11158;53.404;-1.510;2022-12-17T03:21:44;12.63;;;8.82;;
21987;SDS011;11158;53.404;-1.510;2022-12-17T03:24:28;16.50;;;8.30;;
21987;SDS011;11158;53.404;-1.510;2022-12-17T03:27:13;14.75;;;8.57;;
21987;SDS011;11158;53.404;-1.510;2022-12-17T03:29:57;14.48;;;9.18;;
21987;SDS011;11158;53.404;-1.510;2022-12-17T03:32:41;11.70;;;9.27;;
21987;SDS011;11158;53.404;-1.510;2022-12-17T03:35:26;13.35;;;8.57;;
21987;SDS011;11158;53.404;-1.510;2022-12-17T03:38:10;14.05;;;9.25;;
21987;SDS011;11158;53.404;-1.510;2022-12-17T03:40:55;15.15;;;10.05;;
21987;SDS011;11158;53.404;-1.510;2022-12-17T03:43:40;11.13;;;8.85;;
21987;SDS011;11158;53.404;-1.510;2022-12-17T03:46:25;13.00;;;9.30;;
21987;SDS011;11158;53.404;-1.510;2022-12-17T03:49:10;13.20;;;8.38;;
21987;SDS011;11158;53.404;-1.510;2022-12-17T03:51:54;14.65;;;9.77;;
21987;SDS011;11158;53.404;-1.510;2022-12-17T03:54:38;10.65;;;8.50;;
21987;SDS011;11158;53.404;-1.510;2022-12-17T03:57:22;12.85;;;9.05;;
21987;SDS011;11158;53.404;-1.510;2022-12-17T04:00:07;11.55;;;7.95;;
21987;SDS011;11158;53.404;-1.510;2022-12-17T04:02:52;13.48;;;8.45;;
21987;SDS011;11158;53.404;-1.510;2022-12-17T04:05:36;18.10;;;10.10;;
21987;SDS011;11158;53.404;-1.510;2022-12-17T04:08:20;11.48;;;8.57;;
21987;SDS011;11158;53.404;-1.510;2022-12-17T04:11:05;16.10;;;8.98;;
21987;SDS011;11158;53.404;-1.510;2022-12-17T04:13:49;13.25;;;9.27;;
21987;SDS011;11158;53.404;-1.510;2022-12-17T04:16:39;16.35;;;9.68;;
21987;SDS011;11158;53.404;-1.510;2022-12-17T04:19:26;12.38;;;8.70;;
21987;SDS011;11158;53.404;-1.510;2022-12-17T04:22:10;14.13;;;9.90;;
21987;SDS011;11158;53.404;-1.510;2022-12-17T04:24:55;14.15;;;9.60;;
21987;SDS011;11158;53.404;-1.510;2022-12-17T04:27:39;13.55;;;9.68;;
21987;SDS011;11158;53.404;-1.510;2022-12-17T04:30:24;13.02;;;9.00;;
21987;SDS011;11158;53.404;-1.510;2022-12-17T04:33:08;13.05;;;9.02;;
21987;SDS011;11158;53.404;-1.510;2022-12-17T04:35:52;14.80;;;9.50;;
21987;SDS011;11158;53.404;-1.510;2022-12-17T04:38:36;15.18;;;9.88;;
21987;SDS011;11158;53.404;-1.510;2022-12-17T04:41:21;17.60;;;10.10;;
21987;SDS011;11158;53.404;-1.510;2022-12-17T04:44:05;19.30;;;10.07;;
21987;SDS011;11158;53.404;-1.510;2022-12-17T04:46:49;20.15;;;10.63;;
21987;SDS011;11158;53.404;-1.510;2022-12-17T04:49:33;14.82;;;10.30;;
21987;SDS011;11158;53.404;-1.510;2022-12-17T04:52:17;16.48;;;10.32;;
21987;SDS011;11158;53.404;-1.510;2022-12-17T04:55:18;13.05;;;9.73;;
21987;SDS011;11158;53.404;-1.510;2022-12-17T04:58:03;13.23;;;10.27;;
21987;SDS011;11158;53.404;-1.510;2022-12-17T05:00:50;16.52;;;10.60;;
21987;SDS011;11158;53.404;-1.510;2022-12-17T05:03:37;15.63;;;9.98;;
21987;SDS011;11158;53.404;-1.510;2022-12-17T05:06:21;15.70;;;10.65;;
21987;SDS011;11158;53.404;-1.510;2022-12-17T05:09:05;16.35;;;9.70;;
21987;SDS011;11158;53.404;-1.510;2022-12-17T05:11:49;16.48;;;11.05;;
21987;SDS011;11158;53.404;-1.510;2022-12-17T05:14:34;14.32;;;10.15;;
21987;SDS011;11158;53.404;-1.510;2022-12-17T05:17:18;16.25;;;10.65;;
21987;SDS011;11158;53.404;-1.510;2022-12-17T05:20:02;15.75;;;11.40;;
21987;SDS011;11158;53.404;-1.510;2022-12-17T05:22:47;15.02;;;10.27;;
21987;SDS011;11158;53.404;-1.510;2022-12-17T05:25:31;14.23;;;11.23;;
21987;SDS011;11158;53.404;-1.510;2022-12-17T05:28:15;16.33;;;11.07;;
21987;SDS011;11158;53.404;-1.510;2022-12-17T05:30:59;17.70;;;11.55;;
21987;SDS011;11158;53.404;-1.510;2022-12-17T05:33:44;14.18;;;10.48;;
21987;SDS011;11158;53.404;-1.510;2022-12-17T05:36:28;14.10;;;10.57;;
21987;SDS011;11158;53.404;-1.510;2022-12-17T05:39:12;14.07;;;10.52;;
21987;SDS011;11158;53.404;-1.510;2022-12-17T05:41:56;16.30;;;10.48;;
21987;SDS011;11158;53.404;-1.510;2022-12-17T05:44:57;20.13;;;11.98;;
21987;SDS011;11158;53.404;-1.510;2022-12-17T05:47:41;17.90;;;11.23;;
21987;SDS011;11158;53.404;-1.510;2022-12-17T05:50:25;15.50;;;10.80;;
21987;SDS011;11158;53.404;-1.510;2022-12-17T05:53:10;16.23;;;11.30;;
21987;SDS011;11158;53.404;-1.510;2022-12-17T05:55:54;18.25;;;11.43;;
21987;SDS011;11158;53.404;-1.510;2022-12-17T05:58:38;14.88;;;10.50;;
21987;SDS011;11158;53.404;-1.510;2022-12-17T06:01:23;19.33;;;11.23;;
21987;SDS011;11158;53.404;-1.510;2022-12-17T06:04:08;14.45;;;10.70;;
21987;SDS011;11158;53.404;-1.510;2022-12-17T06:06:53;19.77;;;10.80;;
21987;SDS011;11158;53.404;-1.510;2022-12-17T06:09:38;16.77;;;11.75;;
21987;SDS011;11158;53.404;-1.510;2022-12-17T06:12:22;16.30;;;11.48;;
21987;SDS011;11158;53.404;-1.510;2022-12-17T06:15:06;18.48;;;12.48;;
21987;SDS011;11158;53.404;-1.510;2022-12-17T06:17:52;15.40;;;9.98;;
21987;SDS011;11158;53.404;-1.510;2022-12-17T06:20:41;17.30;;;10.85;;
21987;SDS011;11158;53.404;-1.510;2022-12-17T06:23:26;15.65;;;11.32;;
21987;SDS011;11158;53.404;-1.510;2022-12-17T06:26:10;19.65;;;11.95;;
21987;SDS011;11158;53.404;-1.510;2022-12-17T06:28:54;17.15;;;10.43;;
21987;SDS011;11158;53.404;-1.510;2022-12-17T06:31:38;15.93;;;11.13;;
21987;SDS011;11158;53.404;-1.510;2022-12-17T06:34:22;16.95;;;10.68;;
21987;SDS011;11158;53.404;-1.510;2022-12-17T06:37:06;13.52;;;10.27;;
21987;SDS011;11158;53.404;-1.510;2022-12-17T06:39:50;15.52;;;11.13;;
21987;SDS011;11158;53.404;-1.510;2022-12-17T06:42:54;15.18;;;11.38;;
21987;SDS011;11158;53.404;-1.510;2022-12-17T06:45:38;15.18;;;11.32;;
21987;SDS011;11158;53.404;-1.510;2022-12-17T06:48:24;16.33;;;11.70;;
21987;SDS011;11158;53.404;-1.510;2022-12-17T06:51:08;14.70;;;11.50;;
21987;SDS011;11158;53.404;-1.510;2022-12-17T06:53:53;14.55;;;11.07;;
21987;SDS011;11158;53.404;-1.510;2022-12-17T06:56:38;14.55;;;10.32;;
21987;SDS011;11158;53.404;-1.510;2022-12-17T06:59:22;14.35;;;10.77;;
21987;SDS011;11158;53.404;-1.510;2022-12-17T07:02:08;14.30;;;10.57;;
21987;SDS011;11158;53.404;-1.510;2022-12-17T07:04:54;13.25;;;10.63;;
21987;SDS011;11158;53.404;-1.510;2022-12-17T07:07:39;14.30;;;11.10;;
21987;SDS011;11158;53.404;-1.510;2022-12-17T07:10:23;16.00;;;10.75;;
21987;SDS011;11158;53.404;-1.510;2022-12-17T07:13:08;14.15;;;10.55;;
21987;SDS011;11158;53.404;-1.510;2022-12-17T07:15:53;17.27;;;10.50;;
21987;SDS011;11158;53.404;-1.510;2022-12-17T07:18:37;13.90;;;9.90;;
21987;SDS011;11158;53.404;-1.510;2022-12-17T07:21:22;15.23;;;9.85;;
21987;SDS011;11158;53.404;-1.510;2022-12-17T07:24:07;12.40;;;9.30;;
21987;SDS011;11158;53.404;-1.510;2022-12-17T07:26:52;11.80;;;9.25;;
21987;SDS011;11158;53.404;-1.510;2022-12-17T07:29:36;11.27;;;9.18;;
21987;SDS011;11158;53.404;-1.510;2022-12-17T07:32:28;11.95;;;9.73;;
21987;SDS011;11158;53.404;-1.510;2022-12-17T07:35:26;14.77;;;9.10;;
21987;SDS011;11158;53.404;-1.510;2022-12-17T07:38:10;10.82;;;8.85;;
21987;SDS011;11158;53.404;-1.510;2022-12-17T07:40:54;13.57;;;8.93;;
21987;SDS011;11158;53.404;-1.510;2022-12-17T07:43:39;12.25;;;9.27;;
21987;SDS011;11158;53.404;-1.510;2022-12-17T07:46:23;14.38;;;8.77;;
21987;SDS011;11158;53.404;-1.510;2022-12-17T07:49:08;13.18;;;9.30;;
21987;SDS011;11158;53.404;-1.510;2022-12-17T07:51:52;9.38;;;7.57;;
21987;SDS011;11158;53.404;-1.510;2022-12-17T07:54:36;10.10;;;8.10;;
21987;SDS011;11158;53.404;-1.510;2022-12-17T07:57:20;13.50;;;8.13;;
21987;SDS011;11158;53.404;-1.510;2022-12-17T08:00:05;10.80;;;8.43;;
21987;SDS011;11158;53.404;-1.510;2022-12-17T08:02:55;12.45;;;8.80;;
21987;SDS011;11158;53.404;-1.510;2022-12-17T08:05:40;11.57;;;8.45;;
21987;SDS011;11158;53.404;-1.510;2022-12-17T08:08:24;11.80;;;7.80;;
21987;SDS011;11158;53.404;-1.510;2022-12-17T08:11:08;10.60;;;7.93;;
21987;SDS011;11158;53.404;-1.510;2022-12-17T08:13:52;8.98;;;7.22;;
21987;SDS011;11158;53.404;-1.510;2022-12-17T08:16:36;14.05;;;8.75;;
21987;SDS011;11158;53.404;-1.510;2022-12-17T08:19:21;10.52;;;7.55;;
21987;SDS011;11158;53.404;-1.510;2022-12-17T08:22:05;10.30;;;8.30;;
21987;SDS011;11158;53.404;-1.510;2022-12-17T08:24:49;10.35;;;8.02;;
21987;SDS011;11158;53.404;-1.510;2022-12-17T08:27:34;14.73;;;8.35;;
21987;SDS011;11158;53.404;-1.510;2022-12-17T08:30:18;12.25;;;7.88;;
21987;SDS011;11158;53.404;-1.510;2022-12-17T08:33:03;11.95;;;8.48;;
21987;SDS011;11158;53.404;-1.510;2022-12-17T08:35:52;9.05;;;7.28;;
21987;SDS011;11158;53.404;-1.510;2022-12-17T08:38:38;10.32;;;7.63;;
21987;SDS011;11158;53.404;-1.510;2022-12-17T08:41:22;10.25;;;7.72;;
21987;SDS011;11158;53.404;-1.510;2022-12-17T08:44:06;9.32;;;7.18;;
21987;SDS011;11158;53.404;-1.510;2022-12-17T08:46:51;9.95;;;6.55;;
21987;SDS011;11158;53.404;-1.510;2022-12-17T08:49:35;7.32;;;6.53;;
21987;SDS011;11158;53.404;-1.510;2022-12-17T08:52:19;10.90;;;6.00;;
21987;SDS011;11158;53.404;-1.510;2022-12-17T08:55:04;6.72;;;5.57;;
21987;SDS011;11158;53.404;-1.510;2022-12-17T08:57:55;6.60;;;5.20;;
21987;SDS011;11158;53.404;-1.510;2022-12-17T09:00:42;8.90;;;5.30;;
21987;SDS011;11158;53.404;-1.510;2022-12-17T09:03:27;6.05;;;5.20;;
21987;SDS011;11158;53.404;-1.510;2022-12-17T09:06:11;8.30;;;5.43;;
21987;SDS011;11158;53.404;-1.510;2022-12-17T09:08:56;6.57;;;5.57;;
21987;SDS011;11158;53.404;-1.510;2022-12-17T09:11:40;7.03;;;5.38;;
21987;SDS011;11158;53.404;-1.510;2022-12-17T09:14:25;8.40;;;5.95;;
21987;SDS011;11158;53.404;-1.510;2022-12-17T09:17:09;6.97;;;5.93;;
21987;SDS011;11158;53.404;-1.510;2022-12-17T09:19:54;8.57;;;5.80;;
21987;SDS011;11158;53.404;-1.510;2022-12-17T09:22:38;7.03;;;5.97;;
21987;SDS011;11158;53.404;-1.510;2022-12-17T09:25:22;8.88;;;5.88;;
21987;SDS011;11158;53.404;-1.510;2022-12-17T09:28:06;8.30;;;5.47;;
21987;SDS011;11158;53.404;-1.510;2022-12-17T09:30:51;7.30;;;5.88;;
21987;SDS011;11158;53.404;-1.510;2022-12-17T09:33:35;6.40;;;5.10;;
21987;SDS011;11158;53.404;-1.510;2022-12-17T09:36:20;7.15;;;5.30;;
21987;SDS011;11158;53.404;-1.510;2022-12-17T09:39:04;6.72;;;5.45;;
21987;SDS011;11158;53.404;-1.510;2022-12-17T09:50:42;7.18;;;4.60;;
21987;SDS011;11158;53.404;-1.510;2022-12-17T09:53:39;7.18;;;5.20;;
21987;SDS011;11158;53.404;-1.510;2022-12-17T09:56:28;7.25;;;5.15;;
21987;SDS011;11158;53.404;-1.510;2022-12-17T09:59:20;7.13;;;4.78;;
21987;SDS011;11158;53.404;-1.510;2022-12-17T10:02:11;5.57;;;4.43;;
21987;SDS011;11158;53.404;-1.510;2022-12-17T10:04:58;5.78;;;4.05;;
21987;SDS011;11158;53.404;-1.510;2022-12-17T10:07:45;5.25;;;4.00;;
21987;SDS011;11158;53.404;-1.510;2022-12-17T10:10:31;6.65;;;4.55;;
21987;SDS011;11158;53.404;-1.510;2022-12-17T10:13:19;4.47;;;3.67;;
21987;SDS011;11158;53.404;-1.510;2022-12-17T10:16:48;6.40;;;4.28;;
21987;SDS011;11158;53.404;-1.510;2022-12-17T10:19:34;5.65;;;3.38;;
21987;SDS011;11158;53.404;-1.510;2022-12-17T10:22:22;5.82;;;3.45;;
21987;SDS011;11158;53.404;-1.510;2022-12-17T10:28:06;8.00;;;3.22;;
21987;SDS011;11158;53.404;-1.510;2022-12-17T10:30:54;4.60;;;2.60;;
21987;SDS011;11158;53.404;-1.510;2022-12-17T10:33:39;3.88;;;3.03;;
21987;SDS011;11158;53.404;-1.510;2022-12-17T10:36:24;4.43;;;2.63;;
21987;SDS011;11158;53.404;-1.510;2022-12-17T10:39:17;3.20;;;2.70;;
21987;SDS011;11158;53.404;-1.510;2022-12-17T10:45:23;3.28;;;2.63;;
21987;SDS011;11158;53.404;-1.510;2022-12-17T10:48:27;3.95;;;2.70;;
21987;SDS011;11158;53.404;-1.510;2022-12-17T10:51:19;6.50;;;2.83;;
21987;SDS011;11158;53.404;-1.510;2022-12-17T10:54:33;3.60;;;2.75;;
21987;SDS011;11158;53.404;-1.510;2022-12-17T10:57:26;5.43;;;3.17;;
21987;SDS011;11158;53.404;-1.510;2022-12-17T11:03:18;4.35;;;3.10;;
21987;SDS011;11158;53.404;-1.510;2022-12-17T11:06:11;4.72;;;2.80;;
21987;SDS011;11158;53.404;-1.510;2022-12-17T11:08:58;6.10;;;3.60;;
21987;SDS011;11158;53.404;-1.510;2022-12-17T11:11:49;6.07;;;4.00;;
21987;SDS011;11158;53.404;-1.510;2022-12-17T11:14:37;4.43;;;3.00;;
21987;SDS011;11158;53.404;-1.510;2022-12-17T11:17:32;4.07;;;3.15;;
21987;SDS011;11158;53.404;-1.510;2022-12-17T11:20:26;3.92;;;2.90;;
21987;SDS011;11158;53.404;-1.510;2022-12-17T11:23:22;3.17;;;2.88;;
21987;SDS011;11158;53.404;-1.510;2022-12-17T11:26:09;6.13;;;3.47;;
21987;SDS011;11158;53.404;-1.510;2022-12-17T11:28:59;9.45;;;3.60;;
21987;SDS011;11158;53.404;-1.510;2022-12-17T11:31:54;7.32;;;4.40;;
21987;SDS011;11158;53.404;-1.510;2022-12-17T11:40:46;7.38;;;5.78;;
21987;SDS011;11158;53.404;-1.510;2022-12-17T11:43:55;7.40;;;4.63;;
21987;SDS011;11158;53.404;-1.510;2022-12-17T11:47:06;7.35;;;5.90;;
21987;SDS011;11158;53.404;-1.510;2022-12-17T11:50:15;10.20;;;5.95;;
21987;SDS011;11158;53.404;-1.510;2022-12-17T11:53:09;5.75;;;5.15;;
21987;SDS011;11158;53.404;-1.510;2022-12-17T11:59:26;5.75;;;4.57;;
21987;SDS011;11158;53.404;-1.510;2022-12-17T12:08:32;9.45;;;5.60;;
21987;SDS011;11158;53.404;-1.510;2022-12-17T12:12:18;7.18;;;5.32;;
21987;SDS011;11158;53.404;-1.510;2022-12-17T12:24:08;8.07;;;6.25;;
21987;SDS011;11158;53.404;-1.510;2022-12-17T12:27:14;8.38;;;5.70;;
21987;SDS011;11158;53.404;-1.510;2022-12-17T12:30:14;7.13;;;5.75;;
21987;SDS011;11158;53.404;-1.510;2022-12-17T12:36:25;7.82;;;5.28;;
21987;SDS011;11158;53.404;-1.510;2022-12-17T12:39:11;9.30;;;5.82;;
21987;SDS011;11158;53.404;-1.510;2022-12-17T12:42:01;8.75;;;5.30;;
21987;SDS011;11158;53.404;-1.510;2022-12-17T12:44:59;6.03;;;5.38;;
21987;SDS011;11158;53.404;-1.510;2022-12-17T12:50:54;5.78;;;4.65;;
21987;SDS011;11158;53.404;-1.510;2022-12-17T12:54:15;7.03;;;4.13;;
21987;SDS011;11158;53.404;-1.510;2022-12-17T13:03:52;6.05;;;4.65;;
21987;SDS011;11158;53.404;-1.510;2022-12-17T13:11:43;6.55;;;4.40;;
21987;SDS011;11158;53.404;-1.510;2022-12-17T13:14:18;6.18;;;4.90;;
21987;SDS011;11158;53.404;-1.510;2022-12-17T13:25:13;5.93;;;4.50;;
21987;SDS011;11158;53.404;-1.510;2022-12-17T13:27:39;6.15;;;4.10;;
21987;SDS011;11158;53.404;-1.510;2022-12-17T13:32:43;6.53;;;4.43;;
21987;SDS011;11158;53.404;-1.510;2022-12-17T13:40:43;7.38;;;4.65;;
21987;SDS011;11158;53.404;-1.510;2022-12-17T13:43:20;5.78;;;4.00;;
21987;SDS011;11158;53.404;-1.510;2022-12-17T13:45:49;5.55;;;4.35;;
21987;SDS011;11158;53.404;-1.510;2022-12-17T13:48:22;7.40;;;4.82;;
21987;SDS011;11158;53.404;-1.510;2022-12-17T13:50:54;6.47;;;4.78;;
21987;SDS011;11158;53.404;-1.510;2022-12-17T13:53:20;6.00;;;4.72;;
21987;SDS011;11158;53.404;-1.510;2022-12-17T13:55:50;7.63;;;5.20;;
21987;SDS011;11158;53.404;-1.510;2022-12-17T13:58:25;7.03;;;4.78;;
21987;SDS011;11158;53.404;-1.510;2022-12-17T14:01:03;5.63;;;4.78;;
21987;SDS011;11158;53.404;-1.510;2022-12-17T14:03:30;5.70;;;4.88;;
21987;SDS011;11158;53.404;-1.510;2022-12-17T14:05:56;6.88;;;5.28;;
21987;SDS011;11158;53.404;-1.510;2022-12-17T14:08:22;7.60;;;5.45;;
21987;SDS011;11158;53.404;-1.510;2022-12-17T14:10:53;7.63;;;5.40;;
21987;SDS011;11158;53.404;-1.510;2022-12-17T14:13:39;7.22;;;5.90;;
21987;SDS011;11158;53.404;-1.510;2022-12-17T14:16:09;6.70;;;5.85;;
21987;SDS011;11158;53.404;-1.510;2022-12-17T14:18:40;8.30;;;5.40;;
21987;SDS011;11158;53.404;-1.510;2022-12-17T14:21:09;5.88;;;4.90;;
21987;SDS011;11158;53.404;-1.510;2022-12-17T14:23:35;7.95;;;5.28;;
21987;SDS011;11158;53.404;-1.510;2022-12-17T14:26:01;5.80;;;5.20;;
21987;SDS011;11158;53.404;-1.510;2022-12-17T14:28:34;5.97;;;5.18;;
21987;SDS011;11158;53.404;-1.510;2022-12-17T14:31:05;7.43;;;6.00;;
21987;SDS011;11158;53.404;-1.510;2022-12-17T14:36:36;10.77;;;6.78;;
21987;SDS011;11158;53.404;-1.510;2022-12-17T14:39:05;7.90;;;5.95;;
21987;SDS011;11158;53.404;-1.510;2022-12-17T14:41:42;7.55;;;6.10;;
21987;SDS011;11158;53.404;-1.510;2022-12-17T14:44:27;8.52;;;6.22;;
21987;SDS011;11158;53.404;-1.510;2022-12-17T14:47:16;7.35;;;6.13;;
21987;SDS011;11158;53.404;-1.510;2022-12-17T14:49:49;8.15;;;6.13;;
21987;SDS011;11158;53.404;-1.510;2022-12-17T14:55:22;7.72;;;6.47;;
21987;SDS011;11158;53.404;-1.510;2022-12-17T14:58:43;9.27;;;5.97;;
21987;SDS011;11158;53.404;-1.510;2022-12-17T15:01:07;9.35;;;7.40;;
21987;SDS011;11158;53.404;-1.510;2022-12-17T15:03:37;7.50;;;6.70;;
21987;SDS011;11158;53.404;-1.510;2022-12-17T15:06:06;11.45;;;8.07;;
21987;SDS011;11158;53.404;-1.510;2022-12-17T15:08:38;9.50;;;6.80;;
21987;SDS011;11158;53.404;-1.510;2022-12-17T15:11:05;10.07;;;7.07;;
21987;SDS011;11158;53.404;-1.510;2022-12-17T15:13:31;8.18;;;6.70;;
21987;SDS011;11158;53.404;-1.510;2022-12-17T15:15:58;9.93;;;6.72;;
21987;SDS011;11158;53.404;-1.510;2022-12-17T15:18:23;9.95;;;7.53;;
21987;SDS011;11158;53.404;-1.510;2022-12-17T15:20:49;11.57;;;8.98;;
21987;SDS011;11158;53.404;-1.510;2022-12-17T15:23:16;13.45;;;8.88;;
21987;SDS011;11158;53.404;-1.510;2022-12-17T15:25:46;11.57;;;8.80;;
21987;SDS011;11158;53.404;-1.510;2022-12-17T15:28:14;10.23;;;7.68;;
21987;SDS011;11158;53.404;-1.510;2022-12-17T15:30:40;11.27;;;7.13;;
21987;SDS011;11158;53.404;-1.510;2022-12-17T15:33:06;10.20;;;7.53;;
21987;SDS011;11158;53.404;-1.510;2022-12-17T15:35:35;13.18;;;7.35;;
21987;SDS011;11158;53.404;-1.510;2022-12-17T15:38:02;7.80;;;6.82;;
21987;SDS011;11158;53.404;-1.510;2022-12-17T15:40:28;11.60;;;7.32;;
21987;SDS011;11158;53.404;-1.510;2022-12-17T15:42:54;10.65;;;6.22;;
21987;SDS011;11158;53.404;-1.510;2022-12-17T15:45:39;8.88;;;7.30;;
21987;SDS011;11158;53.404;-1.510;2022-12-17T15:48:09;10.43;;;7.75;;
21987;SDS011;11158;53.404;-1.510;2022-12-17T15:50:36;27.60;;;9.38;;
21987;SDS011;11158;53.404;-1.510;2022-12-17T15:53:02;13.15;;;8.55;;
21987;SDS011;11158;53.404;-1.510;2022-12-17T15:55:29;23.55;;;10.10;;
21987;SDS011;11158;53.404;-1.510;2022-12-17T15:57:55;11.43;;;8.02;;
21987;SDS011;11158;53.404;-1.510;2022-12-17T16:00:21;11.18;;;8.38;;
21987;SDS011;11158;53.404;-1.510;2022-12-17T16:02:49;10.38;;;9.15;;
21987;SDS011;11158;53.404;-1.510;2022-12-17T16:05:15;11.57;;;8.90;;
21987;SDS011;11158;53.404;-1.510;2022-12-17T16:07:42;19.77;;;12.35;;
21987;SDS011;11158;53.404;-1.510;2022-12-17T16:10:08;23.85;;;13.75;;
21987;SDS011;11158;53.404;-1.510;2022-12-17T16:12:35;14.40;;;10.70;;
21987;SDS011;11158;53.404;-1.510;2022-12-17T16:15:01;21.55;;;12.70;;
21987;SDS011;11158;53.404;-1.510;2022-12-17T16:17:27;13.65;;;10.02;;
21987;SDS011;11158;53.404;-1.510;2022-12-17T16:19:53;14.45;;;10.73;;
21987;SDS011;11158;53.404;-1.510;2022-12-17T16:22:19;14.52;;;10.25;;
21987;SDS011;11158;53.404;-1.510;2022-12-17T16:24:44;14.23;;;9.77;;
21987;SDS011;11158;53.404;-1.510;2022-12-17T16:27:10;14.40;;;9.82;;
21987;SDS011;11158;53.404;-1.510;2022-12-17T16:29:38;15.45;;;10.43;;
21987;SDS011;11158;53.404;-1.510;2022-12-17T16:32:03;36.65;;;23.92;;
21987;SDS011;11158;53.404;-1.510;2022-12-17T16:34:29;31.60;;;20.45;;
21987;SDS011;11158;53.404;-1.510;2022-12-17T16:36:55;17.77;;;9.77;;
21987;SDS011;11158;53.404;-1.510;2022-12-17T16:39:21;39.50;;;27.42;;
21987;SDS011;11158;53.404;-1.510;2022-12-17T16:41:47;19.95;;;15.05;;
21987;SDS011;11158;53.404;-1.510;2022-12-17T16:44:13;20.08;;;13.73;;
21987;SDS011;11158;53.404;-1.510;2022-12-17T16:46:40;15.32;;;11.70;;
21987;SDS011;11158;53.404;-1.510;2022-12-17T16:49:08;15.77;;;11.60;;
21987;SDS011;11158;53.404;-1.510;2022-12-17T16:51:39;18.73;;;11.77;;
21987;SDS011;11158;53.404;-1.510;2022-12-17T16:54:06;15.80;;;10.65;;
21987;SDS011;11158;53.404;-1.510;2022-12-17T16:56:35;26.73;;;11.13;;
21987;SDS011;11158;53.404;-1.510;2022-12-17T16:59:02;27.67;;;13.13;;
21987;SDS011;11158;53.404;-1.510;2022-12-17T17:01:29;18.35;;;11.45;;
21987;SDS011;11158;53.404;-1.510;2022-12-17T17:03:56;18.48;;;12.55;;
21987;SDS011;11158;53.404;-1.510;2022-12-17T17:06:22;18.50;;;11.75;;
21987;SDS011;11158;53.404;-1.510;2022-12-17T17:08:49;12.25;;;9.70;;
21987;SDS011;11158;53.404;-1.510;2022-12-17T17:11:19;15.10;;;11.75;;
21987;SDS011;11158;53.404;-1.510;2022-12-17T17:13:55;11.82;;;9.95;;
21987;SDS011;11158;53.404;-1.510;2022-12-17T17:16:22;49.22;;;12.95;;
21987;SDS011;11158;53.404;-1.510;2022-12-17T17:18:52;20.33;;;11.43;;
21987;SDS011;11158;53.404;-1.510;2022-12-17T17:23:54;18.67;;;11.15;;
21987;SDS011;11158;53.404;-1.510;2022-12-17T17:26:23;18.67;;;12.80;;
21987;SDS011;11158;53.404;-1.510;2022-12-17T17:28:49;14.52;;;11.73;;
21987;SDS011;11158;53.404;-1.510;2022-12-17T17:31:16;17.88;;;11.55;;